createdAt,value
2022-12-02T00:00:30.517Z,20.20
2022-12-02T00:03:01.177Z,20.20
2022-12-02T00:05:35.231Z,20.30
2022-12-02T00:08:35.442Z,20.30
2022-12-02T00:11:22.823Z,20.30
2022-12-02T00:13:53.112Z,20.30
2022-12-02T00:16:25.336Z,20.30
2022-12-02T00:18:57.043Z,20.30
2022-12-02T00:21:27.386Z,20.40
2022-12-02T00:23:57.635Z,20.40
2022-12-02T00:26:27.926Z,20.40
2022-12-02T00:28:58.168Z,20.40
2022-12-02T00:31:28.532Z,20.40
2022-12-02T00:33:59.803Z,20.40
2022-12-02T00:36:31.000Z,20.40
2022-12-02T00:39:01.643Z,20.50
2022-12-02T00:41:31.943Z,20.40
2022-12-02T00:44:20.241Z,20.40
2022-12-02T00:46:50.599Z,20.50
2022-12-02T00:49:22.126Z,20.50
2022-12-02T00:51:52.468Z,20.50
2022-12-02T00:54:22.666Z,20.50
2022-12-02T00:56:53.113Z,20.50
2022-12-02T00:59:23.492Z,20.50
2022-12-02T01:01:53.988Z,20.50
2022-12-02T01:04:24.273Z,20.50
2022-12-02T01:06:54.558Z,20.50
2022-12-02T01:09:24.869Z,20.60
2022-12-02T01:11:55.140Z,20.60
2022-12-02T01:14:25.389Z,20.60
2022-12-02T01:16:55.971Z,20.60
2022-12-02T01:19:26.282Z,20.60
2022-12-02T01:21:56.604Z,20.60
2022-12-02T01:24:26.881Z,20.70
2022-12-02T01:26:57.270Z,20.60
2022-12-02T01:29:27.555Z,20.60
2022-12-02T01:31:57.855Z,20.70
2022-12-02T01:34:28.245Z,20.70
2022-12-02T01:36:58.505Z,20.70
2022-12-02T01:39:28.725Z,20.70
2022-12-02T01:41:59.205Z,20.70
2022-12-02T01:44:29.588Z,20.70
2022-12-02T01:47:00.176Z,20.70
2022-12-02T01:49:31.047Z,20.70
2022-12-02T01:52:01.848Z,20.70
2022-12-02T01:54:33.028Z,20.80
2022-12-02T01:57:03.634Z,20.80
2022-12-02T01:59:33.850Z,20.80
2022-12-02T02:02:04.132Z,20.80
2022-12-02T02:04:34.369Z,20.80
2022-12-02T02:07:04.625Z,20.80
2022-12-02T02:09:34.784Z,20.80
2022-12-02T02:12:05.039Z,20.80
2022-12-02T02:14:35.282Z,20.80
2022-12-02T02:17:05.698Z,20.80
2022-12-02T02:19:36.377Z,20.80
2022-12-02T02:22:24.328Z,20.80
2022-12-02T02:24:54.632Z,20.80
2022-12-02T02:27:25.109Z,20.80
2022-12-02T02:29:55.467Z,20.80
2022-12-02T02:32:25.728Z,20.80
2022-12-02T02:34:56.036Z,20.80
2022-12-02T02:37:27.660Z,20.80
2022-12-02T02:39:58.034Z,20.80
2022-12-02T02:42:29.168Z,20.80
2022-12-02T02:44:59.820Z,20.80
2022-12-02T02:47:30.119Z,20.80
2022-12-02T02:50:00.464Z,20.90
2022-12-02T02:52:30.873Z,20.80
2022-12-02T02:55:01.099Z,20.90
2022-12-02T02:57:31.359Z,20.80
2022-12-02T03:00:01.851Z,20.90
2022-12-02T03:02:32.433Z,20.90
2022-12-02T03:05:02.792Z,20.90
2022-12-02T03:07:33.488Z,20.90
2022-12-02T03:10:04.832Z,20.90
2022-12-02T03:12:35.927Z,20.90
2022-12-02T03:15:07.293Z,20.90
2022-12-02T03:17:38.038Z,20.90
2022-12-02T03:20:09.453Z,20.90
2022-12-02T03:22:39.837Z,21.00
2022-12-02T03:25:10.758Z,20.90
2022-12-02T03:27:41.684Z,20.90
2022-12-02T03:30:16.874Z,20.90
2022-12-02T03:32:49.156Z,21.00
2022-12-02T03:35:19.629Z,21.00
2022-12-02T03:37:49.976Z,21.00
2022-12-02T03:40:20.614Z,21.00
2022-12-02T03:42:51.227Z,21.00
2022-12-02T03:45:21.827Z,21.00
2022-12-02T03:47:52.110Z,21.00
2022-12-02T03:50:22.979Z,21.00
2022-12-02T03:52:53.330Z,21.00
2022-12-02T03:55:24.350Z,21.00
2022-12-02T03:57:54.698Z,21.00
2022-12-02T04:00:25.070Z,21.00
2022-12-02T04:02:55.358Z,21.00
2022-12-02T04:05:25.580Z,21.00
2022-12-02T04:07:55.872Z,21.00
2022-12-02T04:10:26.237Z,21.00
2022-12-02T04:12:56.451Z,21.00
2022-12-02T04:15:26.630Z,21.00
2022-12-02T04:17:56.919Z,21.00
2022-12-02T04:20:27.121Z,21.10
2022-12-02T04:22:57.356Z,21.00
2022-12-02T04:25:27.526Z,21.10
2022-12-02T04:27:57.835Z,21.10
2022-12-02T04:30:28.118Z,21.10
2022-12-02T04:32:58.564Z,21.10
2022-12-02T04:35:28.730Z,21.10
2022-12-02T04:37:59.024Z,21.10
2022-12-02T04:40:31.778Z,21.10
2022-12-02T04:43:02.225Z,21.10
2022-12-02T04:45:35.151Z,21.10
2022-12-02T04:48:05.850Z,21.10
2022-12-02T04:50:36.164Z,21.10
2022-12-02T04:53:06.467Z,21.10
2022-12-02T04:55:36.685Z,21.10
2022-12-02T04:58:06.957Z,21.10
2022-12-02T05:00:37.134Z,21.10
2022-12-02T05:03:07.495Z,21.10
2022-12-02T05:05:38.078Z,21.10
2022-12-02T05:08:08.438Z,21.20
2022-12-02T05:10:38.755Z,21.10
2022-12-02T05:13:09.024Z,21.10
2022-12-02T05:15:39.321Z,21.10
2022-12-02T05:18:09.568Z,21.20
2022-12-02T05:20:39.738Z,21.10
2022-12-02T05:23:10.037Z,21.10
2022-12-02T05:25:40.299Z,21.10
2022-12-02T05:28:10.681Z,21.10
2022-12-02T05:30:40.990Z,21.10
2022-12-02T05:33:11.188Z,21.10
2022-12-02T05:35:41.406Z,21.10
2022-12-02T05:38:11.731Z,21.10
2022-12-02T05:40:42.009Z,21.10
2022-12-02T05:43:23.641Z,21.20
2022-12-02T05:45:54.881Z,21.10
2022-12-02T05:48:25.128Z,21.20
2022-12-02T05:50:56.549Z,21.10
2022-12-02T05:53:29.047Z,21.10
2022-12-02T05:56:00.076Z,21.10
2022-12-02T05:58:30.417Z,21.20
2022-12-02T06:01:02.560Z,21.20
2022-12-02T06:03:33.778Z,21.20
2022-12-02T06:06:05.251Z,21.20
2022-12-02T06:08:39.969Z,21.20
2022-12-02T06:11:40.612Z,21.20
2022-12-02T06:14:23.370Z,21.20
2022-12-02T06:17:00.054Z,21.20
2022-12-02T06:19:44.840Z,21.20
2022-12-02T06:22:36.194Z,21.20
2022-12-02T06:25:20.898Z,21.20
2022-12-02T06:27:51.346Z,21.20
2022-12-02T06:30:21.600Z,21.20
2022-12-02T06:32:58.305Z,21.20
2022-12-02T06:35:36.286Z,21.20
2022-12-02T06:38:27.108Z,21.20
2022-12-02T06:40:57.498Z,21.20
2022-12-02T06:43:31.732Z,21.20
2022-12-02T06:46:02.013Z,21.20
2022-12-02T06:48:39.044Z,21.30
2022-12-02T06:51:19.088Z,21.30
2022-12-02T06:53:50.339Z,21.30
2022-12-02T06:56:23.535Z,21.30
2022-12-02T06:59:00.134Z,21.30
2022-12-02T07:01:40.456Z,21.30
2022-12-02T07:04:25.753Z,21.40
2022-12-02T07:07:02.407Z,21.30
2022-12-02T07:09:52.808Z,21.40
2022-12-02T07:12:25.629Z,21.40
2022-12-02T07:14:59.810Z,21.40
2022-12-02T07:17:40.681Z,21.40
2022-12-02T07:20:14.007Z,21.40
2022-12-02T07:22:56.937Z,21.50
2022-12-02T07:25:45.457Z,21.50
2022-12-02T07:28:52.411Z,21.50
2022-12-02T07:31:26.410Z,21.50
2022-12-02T07:33:57.084Z,21.50
2022-12-02T07:36:27.525Z,21.50
2022-12-02T07:39:05.886Z,21.50
2022-12-02T07:41:37.922Z,21.50
2022-12-02T07:44:08.981Z,21.50
2022-12-02T07:46:39.354Z,21.50
2022-12-02T07:49:09.568Z,21.50
2022-12-02T07:51:39.803Z,21.50
2022-12-02T07:54:10.062Z,21.50
2022-12-02T07:56:40.278Z,21.50
2022-12-02T07:59:12.240Z,21.50
2022-12-02T08:01:43.235Z,21.50
2022-12-02T08:04:13.498Z,21.50
2022-12-02T08:06:43.861Z,21.50
2022-12-02T08:09:14.124Z,21.50
2022-12-02T08:11:44.553Z,21.50
2022-12-02T08:14:14.951Z,21.50
2022-12-02T08:16:45.338Z,21.50
2022-12-02T08:19:15.606Z,21.50
2022-12-02T08:21:46.085Z,21.50
2022-12-02T08:24:16.991Z,21.50
2022-12-02T08:26:49.370Z,21.50
2022-12-02T08:29:21.193Z,21.50
2022-12-02T08:31:52.908Z,21.50
2022-12-02T08:34:24.283Z,21.50
2022-12-02T08:36:56.355Z,21.50
2022-12-02T08:39:27.404Z,21.50
2022-12-02T08:41:59.515Z,21.50
2022-12-02T08:44:31.293Z,21.50
2022-12-02T08:47:03.466Z,21.40
2022-12-02T08:49:34.372Z,21.50
2022-12-02T08:52:05.171Z,21.50
2022-12-02T08:54:35.466Z,21.50
2022-12-02T08:57:05.880Z,21.50
2022-12-02T08:59:36.155Z,21.50
2022-12-02T09:02:06.445Z,21.60
2022-12-02T09:05:20.668Z,21.60
2022-12-02T09:07:51.251Z,21.60
2022-12-02T09:10:21.602Z,21.60
2022-12-02T09:12:52.340Z,21.60
2022-12-02T09:15:24.404Z,21.60
2022-12-02T09:17:54.561Z,21.60
2022-12-02T09:20:24.720Z,21.60
2022-12-02T09:22:55.000Z,21.60
2022-12-02T09:25:25.557Z,21.60
2022-12-02T09:27:56.016Z,21.60
2022-12-02T09:30:26.222Z,21.60
2022-12-02T09:32:56.497Z,21.60
2022-12-02T09:35:26.802Z,21.70
2022-12-02T09:37:57.552Z,21.70
2022-12-02T09:40:28.407Z,21.70
2022-12-02T09:42:58.713Z,21.70
2022-12-02T09:45:28.917Z,21.70
2022-12-02T09:47:59.479Z,21.70
2022-12-02T09:50:30.833Z,21.70
2022-12-02T09:53:07.422Z,21.70
2022-12-02T09:55:39.547Z,21.70
2022-12-02T09:58:21.863Z,21.70
2022-12-02T10:00:54.606Z,21.70
2022-12-02T10:03:29.268Z,21.70
2022-12-02T10:06:02.854Z,21.70
2022-12-02T10:08:33.306Z,21.70
2022-12-02T10:11:04.310Z,21.70
2022-12-02T10:13:40.752Z,21.70
2022-12-02T10:16:15.712Z,21.70
2022-12-02T10:18:46.441Z,21.70
2022-12-02T10:21:18.867Z,21.70
2022-12-02T10:24:15.107Z,21.70
2022-12-02T10:26:54.372Z,21.70
2022-12-02T10:29:33.924Z,21.70
2022-12-02T10:32:07.074Z,21.70
2022-12-02T10:34:38.566Z,21.70
2022-12-02T10:37:27.617Z,21.70
2022-12-02T10:40:12.194Z,21.70
2022-12-02T10:42:42.544Z,21.70
2022-12-02T10:45:21.328Z,21.70
2022-12-02T10:47:52.977Z,21.70
2022-12-02T10:50:26.899Z,21.70
2022-12-02T10:53:01.358Z,21.70
2022-12-02T10:55:31.936Z,21.70
2022-12-02T10:58:02.153Z,21.60
2022-12-02T11:00:32.858Z,21.60
2022-12-02T11:03:06.120Z,21.60
2022-12-02T11:05:39.302Z,21.60
2022-12-02T11:08:30.891Z,21.60
2022-12-02T11:11:27.881Z,21.60
2022-12-02T11:14:14.320Z,21.60
2022-12-02T11:16:53.892Z,21.60
2022-12-02T11:19:47.189Z,21.50
2022-12-02T11:22:51.495Z,21.50
2022-12-02T11:25:51.834Z,21.50
2022-12-02T11:28:31.799Z,21.50
2022-12-02T11:31:15.906Z,21.50
2022-12-02T11:34:02.455Z,21.50
2022-12-02T11:36:38.093Z,21.50
2022-12-02T11:39:14.302Z,21.50
2022-12-02T11:41:56.805Z,21.50
2022-12-02T11:44:29.658Z,21.50
2022-12-02T11:47:03.069Z,21.50
2022-12-02T11:49:41.777Z,21.50
2022-12-02T11:52:12.021Z,21.50
2022-12-02T11:54:52.364Z,21.50
2022-12-02T11:57:32.598Z,21.50
2022-12-02T12:00:02.980Z,21.50
2022-12-02T12:02:33.284Z,21.40
2022-12-02T12:05:09.676Z,21.40
2022-12-02T12:07:51.993Z,21.50
2022-12-02T12:10:33.075Z,21.40
2022-12-02T12:13:25.414Z,21.40
2022-12-02T12:15:58.771Z,21.50
2022-12-02T12:18:49.149Z,21.40
2022-12-02T12:21:44.203Z,21.50
2022-12-02T12:24:24.132Z,21.40
2022-12-02T12:27:00.476Z,21.40
2022-12-02T12:29:34.219Z,21.40
2022-12-02T12:32:04.734Z,21.40
2022-12-02T12:34:36.101Z,21.40
2022-12-02T12:37:06.365Z,21.40
2022-12-02T12:39:36.528Z,21.40
2022-12-02T12:42:06.919Z,21.40
2022-12-02T12:44:37.100Z,21.40
2022-12-02T12:47:09.591Z,21.40
2022-12-02T12:49:39.976Z,21.40
2022-12-02T12:52:10.316Z,21.40
2022-12-02T12:54:40.700Z,21.40
2022-12-02T12:57:11.250Z,21.40
2022-12-02T12:59:41.531Z,21.40
2022-12-02T13:02:12.348Z,21.30
2022-12-02T13:04:42.722Z,21.30
2022-12-02T13:07:12.991Z,21.30
2022-12-02T13:09:43.237Z,21.30
2022-12-02T13:12:13.704Z,21.30
2022-12-02T13:14:43.955Z,21.30
2022-12-02T13:17:14.483Z,21.30
2022-12-02T13:19:45.302Z,21.30
2022-12-02T13:22:15.602Z,21.30
2022-12-02T13:24:45.831Z,21.30
2022-12-02T13:27:16.077Z,21.30
2022-12-02T13:29:46.315Z,21.30
2022-12-02T13:32:16.661Z,21.30
2022-12-02T13:34:46.956Z,21.30
2022-12-02T13:37:17.187Z,21.30
2022-12-02T13:39:47.350Z,21.30
2022-12-02T13:42:17.595Z,21.30
2022-12-02T13:44:47.885Z,21.30
2022-12-02T13:47:18.198Z,21.30
2022-12-02T13:49:48.341Z,21.20
2022-12-02T13:52:18.898Z,21.20
2022-12-02T13:54:49.463Z,21.20
2022-12-02T13:57:20.352Z,21.20
2022-12-02T13:59:50.624Z,21.20
2022-12-02T14:02:20.862Z,21.20
2022-12-02T14:04:51.346Z,21.20
2022-12-02T14:07:21.720Z,21.20
2022-12-02T14:09:51.902Z,21.20
2022-12-02T14:12:22.184Z,21.20
2022-12-02T14:14:52.608Z,21.10
2022-12-02T14:17:22.950Z,21.10
2022-12-02T14:19:53.479Z,21.10
2022-12-02T14:22:23.987Z,21.10
2022-12-02T14:24:54.594Z,21.10
2022-12-02T14:27:25.044Z,21.10
2022-12-02T14:29:55.241Z,21.10
2022-12-02T14:32:25.549Z,21.10
2022-12-02T14:34:55.904Z,21.10
2022-12-02T14:37:26.303Z,21.10
2022-12-02T14:39:56.530Z,21.10
2022-12-02T14:42:26.745Z,21.10
2022-12-02T14:44:57.019Z,21.10
2022-12-02T14:47:27.469Z,21.10
2022-12-02T14:49:57.671Z,21.10
2022-12-02T14:52:27.968Z,21.10
2022-12-02T14:54:58.196Z,21.10
2022-12-02T14:57:28.929Z,21.00
2022-12-02T14:59:59.154Z,21.00
2022-12-02T15:02:29.452Z,21.10
2022-12-02T15:04:59.766Z,21.00
2022-12-02T15:07:30.434Z,21.00
2022-12-02T15:10:01.068Z,21.00
2022-12-02T15:12:31.234Z,21.00
2022-12-02T15:15:22.786Z,21.00
2022-12-02T15:17:51.706Z,21.00
2022-12-02T15:20:25.379Z,21.00
2022-12-02T15:22:56.011Z,21.00
2022-12-02T15:25:26.358Z,21.00
2022-12-02T15:27:56.620Z,20.90
2022-12-02T15:30:26.903Z,21.00
2022-12-02T15:32:57.165Z,20.90
2022-12-02T15:35:27.489Z,21.00
2022-12-02T15:37:57.721Z,20.90
2022-12-02T15:40:27.915Z,20.90
2022-12-02T15:42:58.135Z,20.90
2022-12-02T15:45:28.415Z,20.90
2022-12-02T15:47:58.584Z,20.90
2022-12-02T15:50:28.911Z,20.90
2022-12-02T15:52:59.187Z,20.90
2022-12-02T15:55:29.552Z,20.90
2022-12-02T15:57:59.768Z,20.90
2022-12-02T16:00:30.178Z,20.90
2022-12-02T16:03:00.719Z,20.90
2022-12-02T16:05:30.998Z,20.80
2022-12-02T16:08:01.273Z,20.80
2022-12-02T16:10:31.645Z,20.80
2022-12-02T16:13:01.851Z,20.80
2022-12-02T16:15:32.089Z,20.80
2022-12-02T16:18:02.346Z,20.80
2022-12-02T16:20:32.566Z,20.80
2022-12-02T16:23:02.801Z,20.80
2022-12-02T16:25:33.091Z,20.80
2022-12-02T16:28:03.413Z,20.80
2022-12-02T16:30:33.705Z,20.80
2022-12-02T16:33:03.988Z,20.70
2022-12-02T16:35:34.262Z,20.70
2022-12-02T16:38:05.177Z,20.80
2022-12-02T16:40:35.663Z,20.70
2022-12-02T16:43:06.189Z,20.70
2022-12-02T16:45:36.807Z,20.70
2022-12-02T16:48:07.251Z,20.70
2022-12-02T16:50:37.459Z,20.70
2022-12-02T16:53:08.097Z,20.70
2022-12-02T16:55:38.479Z,20.70
2022-12-02T16:58:09.004Z,20.70
2022-12-02T17:00:39.567Z,20.70
2022-12-02T17:03:09.975Z,20.70
2022-12-02T17:05:40.426Z,20.60
2022-12-02T17:08:11.644Z,20.60
2022-12-02T17:10:42.034Z,20.60
2022-12-02T17:13:12.269Z,20.60
2022-12-02T17:15:42.484Z,20.60
2022-12-02T17:18:12.770Z,20.60
2022-12-02T17:20:43.058Z,20.60
2022-12-02T17:23:13.224Z,20.60
2022-12-02T17:25:43.496Z,20.60
2022-12-02T17:28:13.718Z,20.60
2022-12-02T17:30:44.189Z,20.60
2022-12-02T17:33:14.439Z,20.50
2022-12-02T17:35:44.706Z,20.50
2022-12-02T17:38:21.096Z,20.60
2022-12-02T17:40:51.422Z,20.60
2022-12-02T17:43:21.588Z,20.50
2022-12-02T17:45:51.914Z,20.50
2022-12-02T17:48:22.173Z,20.50
2022-12-02T17:50:52.762Z,20.50
2022-12-02T17:53:22.939Z,20.50
2022-12-02T17:55:53.188Z,20.50
2022-12-02T17:58:23.667Z,20.50
2022-12-02T18:00:53.995Z,20.50
2022-12-02T18:03:24.463Z,20.50
2022-12-02T18:05:54.830Z,20.50
2022-12-02T18:08:31.170Z,20.50
2022-12-02T18:11:01.666Z,20.40
2022-12-02T18:13:32.028Z,20.40
2022-12-02T18:16:02.243Z,20.40
2022-12-02T18:18:32.397Z,20.40
2022-12-02T18:21:02.868Z,20.40
2022-12-02T18:23:33.061Z,20.40
2022-12-02T18:26:03.401Z,20.30
2022-12-02T18:28:33.612Z,20.40
2022-12-02T18:31:04.992Z,20.40
2022-12-02T18:33:35.329Z,20.40
2022-12-02T18:36:05.593Z,20.30
2022-12-02T18:38:35.869Z,20.30
2022-12-02T18:41:06.194Z,20.30
2022-12-02T18:43:36.748Z,20.30
2022-12-02T18:46:07.225Z,20.30
2022-12-02T18:48:37.651Z,20.30
2022-12-02T18:51:08.061Z,20.30
2022-12-02T18:53:38.237Z,20.30
2022-12-02T18:56:08.747Z,20.20
2022-12-02T18:58:39.013Z,20.20
2022-12-02T19:01:09.647Z,20.20
2022-12-02T19:03:39.962Z,20.20
2022-12-02T19:06:10.461Z,20.20
2022-12-02T19:08:40.576Z,20.20
2022-12-02T19:11:10.869Z,20.20
2022-12-02T19:13:41.446Z,20.20
2022-12-02T19:16:12.379Z,20.20
2022-12-02T19:18:42.784Z,20.20
2022-12-02T19:21:13.073Z,20.10
2022-12-02T19:23:45.603Z,20.10
2022-12-02T19:26:16.440Z,20.10
2022-12-02T19:28:46.685Z,20.10
2022-12-02T19:31:17.163Z,20.10
2022-12-02T19:33:47.694Z,20.10
2022-12-02T19:36:18.224Z,20.10
2022-12-02T19:38:48.733Z,20.10
2022-12-02T19:41:19.342Z,20.10
2022-12-02T19:43:49.721Z,20.00
2022-12-02T19:46:20.437Z,20.00
2022-12-02T19:48:50.887Z,20.00
2022-12-02T19:51:21.259Z,20.00
2022-12-02T19:53:51.641Z,20.00
2022-12-02T19:56:22.208Z,20.00
2022-12-02T19:58:52.426Z,20.00
2022-12-02T20:01:22.937Z,20.00
2022-12-02T20:03:53.368Z,20.00
2022-12-02T20:06:23.838Z,20.00
2022-12-02T20:08:54.105Z,20.00
2022-12-02T20:11:24.276Z,19.90
2022-12-02T20:13:54.521Z,19.90
2022-12-02T20:16:24.829Z,19.90
2022-12-02T20:18:55.148Z,19.90
2022-12-02T20:21:25.362Z,19.90
2022-12-02T20:23:55.679Z,19.90
2022-12-02T20:26:26.039Z,19.90
2022-12-02T20:28:56.194Z,19.90
2022-12-02T20:31:26.392Z,19.90
2022-12-02T20:33:56.611Z,19.90
2022-12-02T20:36:26.818Z,19.90
2022-12-02T20:38:57.050Z,19.90
2022-12-02T20:41:27.283Z,19.90
2022-12-02T20:43:57.628Z,19.90
2022-12-02T20:46:27.910Z,19.90
2022-12-02T20:48:58.314Z,19.90
2022-12-02T20:51:28.577Z,19.80
2022-12-02T20:53:59.514Z,19.90
2022-12-02T20:56:29.820Z,19.80
2022-12-02T20:59:00.214Z,19.80
2022-12-02T21:01:30.481Z,19.80
2022-12-02T21:04:01.095Z,19.80
2022-12-02T21:06:31.322Z,19.80
2022-12-02T21:09:02.185Z,19.80
2022-12-02T21:11:32.406Z,19.80
2022-12-02T21:14:02.684Z,19.80
2022-12-02T21:16:32.984Z,19.80
2022-12-02T21:19:04.010Z,19.80
2022-12-02T21:21:36.084Z,19.80
2022-12-02T21:24:06.623Z,19.80
2022-12-02T21:26:36.872Z,19.80
2022-12-02T21:29:07.078Z,19.80
2022-12-02T21:31:40.328Z,19.80
2022-12-02T21:34:10.681Z,19.80
2022-12-02T21:36:40.872Z,19.80
2022-12-02T21:39:11.672Z,19.80
2022-12-02T21:41:41.825Z,19.80
2022-12-02T21:44:12.197Z,19.80
2022-12-02T21:46:42.437Z,19.80
2022-12-02T21:49:12.713Z,19.90
2022-12-02T21:51:43.087Z,19.90
2022-12-02T21:54:13.762Z,19.90
2022-12-02T21:56:44.002Z,19.90
2022-12-02T21:59:14.328Z,19.90
2022-12-02T22:01:45.472Z,19.90
2022-12-02T22:04:18.799Z,19.90
2022-12-02T22:06:49.097Z,19.90
2022-12-02T22:09:19.407Z,19.90
2022-12-02T22:11:49.724Z,19.90
2022-12-02T22:14:19.874Z,19.90
2022-12-02T22:16:52.282Z,19.90
2022-12-02T22:19:22.661Z,19.90
2022-12-02T22:21:53.237Z,19.90
2022-12-02T22:24:23.719Z,19.90
2022-12-02T22:26:54.060Z,19.90
2022-12-02T22:29:24.314Z,19.90
2022-12-02T22:31:54.785Z,19.90
2022-12-02T22:34:25.498Z,19.90
2022-12-02T22:36:55.727Z,19.90
2022-12-02T22:39:26.453Z,19.90
2022-12-02T22:41:56.869Z,19.90
2022-12-02T22:44:27.054Z,20.00
2022-12-02T22:46:57.326Z,19.90
2022-12-02T22:49:27.583Z,20.00
2022-12-02T22:51:57.761Z,20.00
2022-12-02T22:54:27.994Z,20.00
2022-12-02T22:56:58.202Z,20.00
2022-12-02T22:59:28.485Z,20.00
2022-12-02T23:01:58.798Z,20.00
2022-12-02T23:04:29.450Z,20.00
2022-12-02T23:06:59.639Z,20.00
2022-12-02T23:09:30.911Z,20.00
2022-12-02T23:12:01.175Z,20.00
2022-12-02T23:14:31.437Z,20.10
2022-12-02T23:17:01.679Z,20.10
2022-12-02T23:19:31.981Z,20.10
2022-12-02T23:22:02.220Z,20.10
2022-12-02T23:24:32.452Z,20.10
2022-12-02T23:27:02.694Z,20.10
2022-12-02T23:29:33.604Z,20.20
2022-12-02T23:32:03.803Z,20.20
2022-12-02T23:34:34.095Z,20.20
2022-12-02T23:37:04.328Z,20.20
2022-12-02T23:39:34.600Z,20.20
2022-12-02T23:42:04.803Z,20.20
2022-12-02T23:44:35.027Z,20.20
2022-12-02T23:47:05.209Z,20.20
2022-12-02T23:49:35.478Z,20.20
2022-12-02T23:52:05.707Z,20.20
2022-12-02T23:54:36.027Z,20.20
2022-12-02T23:57:06.262Z,20.30
2022-12-02T23:59:36.493Z,20.30
